Webcam

2017/10/17 07:20 EBBR 170720Z 18004KT 6000 NSC 12/11 Q1022 NOSIG

Webcam

--- Refresh now ---